Megalohari Vi — SX3828 — position and weather

sailwx.info

Track history (hours):
 
Tides and Currents Weather Stations Pressure Air Temp Water Temp Dewpoint Dewpoint Depression Visibility Wind Speed Wind Dir Waves Ship Positions

Megalohari Vi

Last reported at 2017-Aug-31 17:11 UTC. Time now 2017-Nov-21 06:28 UTC.
Position N 37°58' E 023°37'.
Warning: this ship's position is months out of date.

Length 28 m; draft 3 m.

Type: Tug. MMSI: 237036400.

Date/timePositionNaut miles runAvg speedWind from/ knotsBaromVisibWave heightAir tempDewpointWater temp
2017-Aug-31 17:11N 37°58' E 023°37'0 2.5
2017-Aug-31 17:00N 37°57' E 023°36'1 2.8
2017-Aug-31 16:31N 37°57' E 023°35'2 3.6
2017-Aug-31 16:01N 37°57' E 023°37'0 0.0
2017-Aug-31 15:31N 37°57' E 023°37'0 0.1
2017-Aug-31 15:01N 37°58' E 023°37'0 0.0
2017-Aug-31 14:31N 37°58' E 023°37'0 0.0
2017-Aug-31 14:01N 37°58' E 023°37'0 0.0
2017-Aug-31 13:31N 37°58' E 023°37'0 0.0
2017-Aug-31 13:00N 37°58' E 023°37'0 0.0
2017-Aug-31 12:30N 37°58' E 023°37'0 0.0
2017-Aug-31 12:01N 37°58' E 023°37'0 0.0
2017-Aug-31 11:30N 37°58' E 023°37'0 0.0
2017-Aug-31 11:01N 37°58' E 023°37'0 0.0
2017-Aug-31 10:31N 37°58' E 023°37'0 0.0
2017-Aug-31 10:01N 37°58' E 023°37'0 0.0
2017-Aug-31 09:30N 37°58' E 023°37'0 0.0
2017-Aug-31 09:01N 37°58' E 023°37'0 0.0
2017-Aug-31 08:31N 37°58' E 023°37'0 0.0
2017-Aug-31 08:01N 37°58' E 023°37'0 0.0
2017-Aug-31 07:31N 37°58' E 023°37'0 0.0
2017-Aug-31 07:01N 37°58' E 023°37'0 0.0
2017-Aug-31 06:30N 37°58' E 023°37'0 0.0
2017-Aug-31 06:00N 37°58' E 023°37'0 0.0
2017-Aug-31 05:30N 37°58' E 023°37'0 0.0
2017-Aug-31 05:01N 37°58' E 023°37'0 0.0
2017-Aug-31 04:31N 37°58' E 023°37'0 0.0
2017-Aug-31 04:01N 37°58' E 023°37'0 0.0
2017-Aug-31 03:31N 37°58' E 023°37'0 0.0
2017-Aug-31 03:01N 37°58' E 023°37'0 0.0
2017-Aug-30 18:33N 37°58' E 023°37'0 0.1
2017-Aug-30 18:30N 37°58' E 023°37'0 0.0
2017-Aug-30 18:00N 37°58' E 023°37'0 0.0
2017-Aug-30 17:30N 37°58' E 023°37'0 0.0
2017-Aug-30 17:00N 37°58' E 023°37'0 0.0
2017-Aug-30 16:30N 37°58' E 023°37'0 0.0
2017-Aug-30 16:00N 37°58' E 023°37'0 0.0
2017-Aug-30 15:30N 37°58' E 023°37'0 0.0
2017-Aug-30 15:00N 37°58' E 023°37'0 0.0
2017-Aug-30 14:30N 37°58' E 023°37'0 0.0
2017-Aug-30 14:00N 37°58' E 023°37'0 0.0
2017-Aug-30 13:30N 37°58' E 023°37'0 0.0
2017-Aug-30 13:00N 37°58' E 023°37'0 0.0
2017-Aug-30 12:30N 37°58' E 023°37'0 0.0
2017-Aug-30 11:54N 37°58' E 023°37'0 0.0
2017-Aug-30 11:30N 37°58' E 023°37'0 0.0
2017-Aug-30 11:00N 37°58' E 023°37'0 0.0
2017-Aug-30 10:30N 37°58' E 023°37'0 0.0
2017-Aug-30 10:00N 37°58' E 023°37'0 0.0
2017-Aug-30 09:30N 37°58' E 023°37'0 0.0
2017-Aug-30 09:00N 37°58' E 023°37'0 0.0
2017-Aug-30 08:30N 37°58' E 023°37'0 0.0
2017-Aug-30 08:00N 37°58' E 023°37'0 0.0
2017-Aug-30 07:29N 37°58' E 023°37'0 0.0
2017-Aug-30 07:00N 37°58' E 023°37'0 0.0
2017-Aug-30 06:29N 37°58' E 023°37'0 0.0
2017-Aug-30 05:59N 37°58' E 023°37'0 0.0
2017-Aug-30 05:30N 37°58' E 023°37'0 0.0
2017-Aug-30 05:00N 37°58' E 023°37'0 0.0
2017-Aug-30 04:30N 37°58' E 023°37'1 2.5
2017-Aug-30 04:00N 37°57' E 023°35'1 1.9
2017-Aug-30 03:30N 37°57' E 023°36'0 0.6
2017-Aug-30 03:00N 37°58' E 023°37'0 0.0
2017-Aug-29 11:05N 37°58' E 023°37'0 0.0
2017-Aug-29 11:00N 37°58' E 023°37'0 0.0
2017-Aug-29 10:30N 37°58' E 023°37'0 0.0
2017-Aug-29 10:00N 37°58' E 023°37'0 0.0
2017-Aug-29 09:30N 37°58' E 023°37'0 0.0
2017-Aug-29 09:00N 37°58' E 023°37'0 0.0
2017-Aug-29 08:30N 37°58' E 023°37'2 4.3
2017-Aug-29 08:00N 37°57' E 023°34'1 1.6
2017-Aug-29 07:30N 37°57' E 023°33'0 0.9
2017-Aug-29 07:00N 37°58' E 023°34'0 0.0
2017-Aug-29 06:30N 37°58' E 023°34'0 0.0
2017-Aug-29 05:54N 37°58' E 023°34'0 0.0
2017-Aug-29 05:30N 37°58' E 023°34'0 0.0
2017-Aug-29 05:00N 37°58' E 023°34'1 2.5
2017-Aug-29 04:30N 37°57' E 023°35'1 1.1
2017-Aug-29 04:00N 37°57' E 023°35'2 0.1
2017-Aug-28 10:50N 37°58' E 023°37'0 0.0
2017-Aug-28 10:30N 37°58' E 023°37'0 0.0
2017-Aug-28 10:00N 37°58' E 023°37'0 0.0
2017-Aug-28 09:30N 37°58' E 023°37'0 0.0
2017-Aug-28 09:00N 37°58' E 023°37'0 0.0
2017-Aug-28 08:30N 37°58' E 023°37'0 0.0
2017-Aug-28 08:00N 37°58' E 023°37'0 0.0
2017-Aug-28 06:13N 37°58' E 023°37'0 0.0
2017-Aug-28 06:00N 37°58' E 023°37'0 0.0
2017-Aug-28 05:30N 37°58' E 023°37'0 0.0
2017-Aug-28 05:00N 37°58' E 023°37'0 0.0
2017-Aug-28 04:30N 37°58' E 023°37'0 0.0
2017-Aug-28 04:00N 37°58' E 023°37'0 0.0
2017-Aug-28 03:30N 37°58' E 023°37'0 0.0
2017-Aug-28 03:00N 37°58' E 023°37'  
2017-Aug-25 10:49N 37°58' E 023°37'0 0.0
2017-Aug-25 10:30N 37°58' E 023°37'0 0.0
2017-Aug-25 10:00N 37°58' E 023°37'0 0.0
2017-Aug-25 09:30N 37°58' E 023°37'0 0.0
2017-Aug-25 09:00N 37°58' E 023°37'0 0.0
2017-Aug-25 08:30N 37°58' E 023°37'0 0.0
2017-Aug-25 08:00N 37°58' E 023°37'0 0.0
2017-Aug-25 07:30N 37°58' E 023°37'0 0.0
2017-Aug-25 07:00N 37°58' E 023°37'0 0.0
2017-Aug-25 06:30N 37°58' E 023°37'0 0.0
2017-Aug-25 06:00N 37°58' E 023°37'0 0.0
2017-Aug-25 05:30N 37°58' E 023°37'0 0.0
2017-Aug-25 05:00N 37°58' E 023°37'0 0.0
2017-Aug-25 04:30N 37°58' E 023°37'0 0.0
2017-Aug-25 04:00N 37°58' E 023°37'0 0.0
2017-Aug-25 03:30N 37°58' E 023°37'0 0.0
2017-Aug-25 03:00N 37°58' E 023°37'0 0.0
2017-Aug-24 10:49N 37°58' E 023°37'0 0.0
2017-Aug-24 10:31N 37°58' E 023°37'0 0.0
2017-Aug-24 10:01N 37°58' E 023°37'0 0.0
2017-Aug-24 09:31N 37°58' E 023°37'0 0.0
2017-Aug-24 09:01N 37°58' E 023°37'0 0.0
2017-Aug-24 08:30N 37°58' E 023°37'0 0.0
2017-Aug-24 08:01N 37°58' E 023°37'0 0.0
2017-Aug-24 07:30N 37°58' E 023°37'0 0.0
2017-Aug-24 07:01N 37°58' E 023°37'0 0.6
2017-Aug-24 06:30N 37°57' E 023°36'0 0.6
2017-Aug-24 06:00N 37°58' E 023°37'0 0.0
2017-Aug-24 05:31N 37°58' E 023°37'0 0.0
2017-Aug-24 05:01N 37°58' E 023°37'0 0.0
2017-Aug-24 04:30N 37°58' E 023°37'0 0.0
2017-Aug-24 04:00N 37°58' E 023°37'0 0.0
2017-Aug-24 03:31N 37°58' E 023°37'0 0.0
2017-Aug-24 03:01N 37°58' E 023°37'0 0.0
2017-Aug-24 02:31N 37°58' E 023°37'0 0.0
2017-Aug-24 02:01N 37°58' E 023°37'0 0.0
2017-Aug-24 01:31N 37°58' E 023°37'0 0.0
2017-Aug-24 01:00N 37°58' E 023°37'0 0.0
2017-Aug-24 00:31N 37°58' E 023°37'0 0.0
2017-Aug-24 00:00N 37°58' E 023°37'0 0.0
2017-Aug-23 23:30N 37°58' E 023°37'0 0.0
2017-Aug-23 23:01N 37°58' E 023°37'0 0.0
2017-Aug-23 22:30N 37°58' E 023°37'0 0.0
2017-Aug-23 22:01N 37°58' E 023°37'0 0.0
2017-Aug-23 21:31N 37°58' E 023°37'0 0.0
2017-Aug-23 21:01N 37°58' E 023°37'0 0.0
2017-Aug-23 20:31N 37°58' E 023°37'0 0.0
2017-Aug-23 20:01N 37°58' E 023°37'0 0.0
2017-Aug-23 19:31N 37°58' E 023°37'0 0.0
2017-Aug-23 19:01N 37°58' E 023°37'0 0.0
2017-Aug-23 18:30N 37°58' E 023°37'0 0.0
2017-Aug-23 18:00N 37°58' E 023°37'0 0.0
2017-Aug-23 17:31N 37°58' E 023°37'0 0.0
2017-Aug-23 17:00N 37°58' E 023°37'0 0.0
2017-Aug-23 16:30N 37°58' E 023°37'1 2.5
2017-Aug-23 16:01N 37°57' E 023°35'3 6.4
2017-Aug-23 15:30N 37°60' E 023°33'2 4.7
2017-Aug-23 15:01N 38°02' E 023°33'0 0.0
2017-Aug-23 14:01N 38°02' E 023°33'0 0.0
2017-Aug-23 13:30N 38°02' E 023°33'0 0.0
2017-Aug-23 13:01N 38°02' E 023°33'0 0.0
2017-Aug-23 12:31N 38°02' E 023°33'0 0.2
2017-Aug-23 12:00N 38°02' E 023°33'4 7.6
2017-Aug-23 11:30N 37°58' E 023°33'3 6.1
2017-Aug-23 11:00N 37°58' E 023°37'0 0.1
2017-Aug-23 10:31N 37°58' E 023°37'0 0.0
2017-Aug-23 10:00N 37°58' E 023°37'0 0.0
2017-Aug-23 09:31N 37°58' E 023°37'0 0.0
2017-Aug-23 09:01N 37°58' E 023°37'0 0.0
2017-Aug-23 08:31N 37°58' E 023°37'0 0.0
2017-Aug-23 08:01N 37°58' E 023°37'0 0.0
2017-Aug-23 07:30N 37°58' E 023°37'0 0.0
2017-Aug-23 07:01N 37°58' E 023°37'0 0.0
2017-Aug-23 06:31N 37°58' E 023°37'0 0.0
2017-Aug-23 06:01N 37°58' E 023°37'0 0.0
2017-Aug-23 05:31N 37°58' E 023°37'0 0.0
2017-Aug-23 05:00N 37°58' E 023°37'0 0.0
2017-Aug-23 04:30N 37°58' E 023°37'0 0.0
2017-Aug-23 04:01N 37°58' E 023°37'0 0.0
2017-Aug-23 03:31N 37°58' E 023°37'0 0.0
2017-Aug-23 03:01N 37°58' E 023°37'0 0.0
2017-Aug-22 11:05N 37°58' E 023°37'0 0.0
2017-Aug-22 11:00N 37°58' E 023°37'0 0.0
2017-Aug-22 10:30N 37°58' E 023°37'0 0.0
2017-Aug-22 10:00N 37°58' E 023°37'0 0.0
2017-Aug-22 09:30N 37°58' E 023°37'0 0.0
2017-Aug-22 09:00N 37°58' E 023°37'0 0.0
2017-Aug-22 08:30N 37°58' E 023°37'0 0.0
2017-Aug-22 08:00N 37°58' E 023°37'0 0.0
2017-Aug-22 07:30N 37°58' E 023°37'0 0.0
2017-Aug-22 07:00N 37°58' E 023°37'0 0.0
2017-Aug-22 06:30N 37°58' E 023°37'0 0.0
2017-Aug-22 06:00N 37°58' E 023°37'0 0.0
2017-Aug-22 05:30N 37°58' E 023°37'0 0.0
2017-Aug-22 05:00N 37°58' E 023°37'0 0.0
2017-Aug-22 04:30N 37°58' E 023°37'0 0.0
2017-Aug-22 04:00N 37°58' E 023°37'0 0.0
2017-Aug-22 03:30N 37°58' E 023°37'  
Track history (hours):
 
Tides and Currents Weather Stations Pressure Air Temp Water Temp Dewpoint Dewpoint Depression Visibility Wind Speed Wind Dir Waves Ship Positions

Megalohari Vi

Last reported at 2017-Aug-31 17:11 UTC. Time now 2017-Nov-21 06:28 UTC.
Position N 37°58' E 023°37'.
Warning: this ship's position is months out of date.

Length 28 m; draft 3 m.

Type: Tug. MMSI: 237036400.

Date/timePositionNaut miles runAvg speedWind from/ knotsBaromVisibWave heightAir tempDewpointWater temp
2017-Aug-31 17:11N 37°58' E 023°37'0 2.5
2017-Aug-31 17:00N 37°57' E 023°36'1 2.8
2017-Aug-31 16:31N 37°57' E 023°35'2 3.6
2017-Aug-31 16:01N 37°57' E 023°37'0 0.0
2017-Aug-31 15:31N 37°57' E 023°37'0 0.1
2017-Aug-31 15:01N 37°58' E 023°37'0 0.0
2017-Aug-31 14:31N 37°58' E 023°37'0 0.0
2017-Aug-31 14:01N 37°58' E 023°37'0 0.0
2017-Aug-31 13:31N 37°58' E 023°37'0 0.0
2017-Aug-31 13:00N 37°58' E 023°37'0 0.0
2017-Aug-31 12:30N 37°58' E 023°37'0 0.0
2017-Aug-31 12:01N 37°58' E 023°37'0 0.0
2017-Aug-31 11:30N 37°58' E 023°37'0 0.0
2017-Aug-31 11:01N 37°58' E 023°37'0 0.0
2017-Aug-31 10:31N 37°58' E 023°37'0 0.0
2017-Aug-31 10:01N 37°58' E 023°37'0 0.0
2017-Aug-31 09:30N 37°58' E 023°37'0 0.0
2017-Aug-31 09:01N 37°58' E 023°37'0 0.0
2017-Aug-31 08:31N 37°58' E 023°37'0 0.0
2017-Aug-31 08:01N 37°58' E 023°37'0 0.0
2017-Aug-31 07:31N 37°58' E 023°37'0 0.0
2017-Aug-31 07:01N 37°58' E 023°37'0 0.0
2017-Aug-31 06:30N 37°58' E 023°37'0 0.0
2017-Aug-31 06:00N 37°58' E 023°37'0 0.0
2017-Aug-31 05:30N 37°58' E 023°37'0 0.0
2017-Aug-31 05:01N 37°58' E 023°37'0 0.0
2017-Aug-31 04:31N 37°58' E 023°37'0 0.0
2017-Aug-31 04:01N 37°58' E 023°37'0 0.0
2017-Aug-31 03:31N 37°58' E 023°37'0 0.0
2017-Aug-31 03:01N 37°58' E 023°37'0 0.0
2017-Aug-30 18:33N 37°58' E 023°37'0 0.1
2017-Aug-30 18:30N 37°58' E 023°37'0 0.0
2017-Aug-30 18:00N 37°58' E 023°37'0 0.0
2017-Aug-30 17:30N 37°58' E 023°37'0 0.0
2017-Aug-30 17:00N 37°58' E 023°37'0 0.0
2017-Aug-30 16:30N 37°58' E 023°37'0 0.0
2017-Aug-30 16:00N 37°58' E 023°37'0 0.0
2017-Aug-30 15:30N 37°58' E 023°37'0 0.0
2017-Aug-30 15:00N 37°58' E 023°37'0 0.0
2017-Aug-30 14:30N 37°58' E 023°37'0 0.0
2017-Aug-30 14:00N 37°58' E 023°37'0 0.0
2017-Aug-30 13:30N 37°58' E 023°37'0 0.0
2017-Aug-30 13:00N 37°58' E 023°37'0 0.0
2017-Aug-30 12:30N 37°58' E 023°37'0 0.0
2017-Aug-30 11:54N 37°58' E 023°37'0 0.0
2017-Aug-30 11:30N 37°58' E 023°37'0 0.0
2017-Aug-30 11:00N 37°58' E 023°37'0 0.0
2017-Aug-30 10:30N 37°58' E 023°37'0 0.0
2017-Aug-30 10:00N 37°58' E 023°37'0 0.0
2017-Aug-30 09:30N 37°58' E 023°37'0 0.0
2017-Aug-30 09:00N 37°58' E 023°37'0 0.0
2017-Aug-30 08:30N 37°58' E 023°37'0 0.0
2017-Aug-30 08:00N 37°58' E 023°37'0 0.0
2017-Aug-30 07:29N 37°58' E 023°37'0 0.0
2017-Aug-30 07:00N 37°58' E 023°37'0 0.0
2017-Aug-30 06:29N 37°58' E 023°37'0 0.0
2017-Aug-30 05:59N 37°58' E 023°37'0 0.0
2017-Aug-30 05:30N 37°58' E 023°37'0 0.0
2017-Aug-30 05:00N 37°58' E 023°37'0 0.0
2017-Aug-30 04:30N 37°58' E 023°37'1 2.5
2017-Aug-30 04:00N 37°57' E 023°35'1 1.9
2017-Aug-30 03:30N 37°57' E 023°36'0 0.6
2017-Aug-30 03:00N 37°58' E 023°37'0 0.0
2017-Aug-29 11:05N 37°58' E 023°37'0 0.0
2017-Aug-29 11:00N 37°58' E 023°37'0 0.0
2017-Aug-29 10:30N 37°58' E 023°37'0 0.0
2017-Aug-29 10:00N 37°58' E 023°37'0 0.0
2017-Aug-29 09:30N 37°58' E 023°37'0 0.0
2017-Aug-29 09:00N 37°58' E 023°37'0 0.0
2017-Aug-29 08:30N 37°58' E 023°37'2 4.3
2017-Aug-29 08:00N 37°57' E 023°34'1 1.6
2017-Aug-29 07:30N 37°57' E 023°33'0 0.9
2017-Aug-29 07:00N 37°58' E 023°34'0 0.0
2017-Aug-29 06:30N 37°58' E 023°34'0 0.0
2017-Aug-29 05:54N 37°58' E 023°34'0 0.0
2017-Aug-29 05:30N 37°58' E 023°34'0 0.0
2017-Aug-29 05:00N 37°58' E 023°34'1 2.5
2017-Aug-29 04:30N 37°57' E 023°35'1 1.1
2017-Aug-29 04:00N 37°57' E 023°35'2 0.1
2017-Aug-28 10:50N 37°58' E 023°37'0 0.0
2017-Aug-28 10:30N 37°58' E 023°37'0 0.0
2017-Aug-28 10:00N 37°58' E 023°37'0 0.0
2017-Aug-28 09:30N 37°58' E 023°37'0 0.0
2017-Aug-28 09:00N 37°58' E 023°37'0 0.0
2017-Aug-28 08:30N 37°58' E 023°37'0 0.0
2017-Aug-28 08:00N 37°58' E 023°37'0 0.0
2017-Aug-28 06:13N 37°58' E 023°37'0 0.0
2017-Aug-28 06:00N 37°58' E 023°37'0 0.0
2017-Aug-28 05:30N 37°58' E 023°37'0 0.0
2017-Aug-28 05:00N 37°58' E 023°37'0 0.0
2017-Aug-28 04:30N 37°58' E 023°37'0 0.0
2017-Aug-28 04:00N 37°58' E 023°37'0 0.0
2017-Aug-28 03:30N 37°58' E 023°37'0 0.0
2017-Aug-28 03:00N 37°58' E 023°37'  
2017-Aug-25 10:49N 37°58' E 023°37'0 0.0
2017-Aug-25 10:30N 37°58' E 023°37'0 0.0
2017-Aug-25 10:00N 37°58' E 023°37'0 0.0
2017-Aug-25 09:30N 37°58' E 023°37'0 0.0
2017-Aug-25 09:00N 37°58' E 023°37'0 0.0
2017-Aug-25 08:30N 37°58' E 023°37'0 0.0
2017-Aug-25 08:00N 37°58' E 023°37'0 0.0
2017-Aug-25 07:30N 37°58' E 023°37'0 0.0
2017-Aug-25 07:00N 37°58' E 023°37'0 0.0
2017-Aug-25 06:30N 37°58' E 023°37'0 0.0
2017-Aug-25 06:00N 37°58' E 023°37'0 0.0
2017-Aug-25 05:30N 37°58' E 023°37'0 0.0
2017-Aug-25 05:00N 37°58' E 023°37'0 0.0
2017-Aug-25 04:30N 37°58' E 023°37'0 0.0
2017-Aug-25 04:00N 37°58' E 023°37'0 0.0
2017-Aug-25 03:30N 37°58' E 023°37'0 0.0
2017-Aug-25 03:00N 37°58' E 023°37'0 0.0
2017-Aug-24 10:49N 37°58' E 023°37'0 0.0
2017-Aug-24 10:31N 37°58' E 023°37'0 0.0
2017-Aug-24 10:01N 37°58' E 023°37'0 0.0
2017-Aug-24 09:31N 37°58' E 023°37'0 0.0
2017-Aug-24 09:01N 37°58' E 023°37'0 0.0
2017-Aug-24 08:30N 37°58' E 023°37'0 0.0
2017-Aug-24 08:01N 37°58' E 023°37'0 0.0
2017-Aug-24 07:30N 37°58' E 023°37'0 0.0
2017-Aug-24 07:01N 37°58' E 023°37'0 0.6
2017-Aug-24 06:30N 37°57' E 023°36'0 0.6
2017-Aug-24 06:00N 37°58' E 023°37'0 0.0
2017-Aug-24 05:31N 37°58' E 023°37'0 0.0
2017-Aug-24 05:01N 37°58' E 023°37'0 0.0
2017-Aug-24 04:30N 37°58' E 023°37'0 0.0
2017-Aug-24 04:00N 37°58' E 023°37'0 0.0
2017-Aug-24 03:31N 37°58' E 023°37'0 0.0
2017-Aug-24 03:01N 37°58' E 023°37'0 0.0
2017-Aug-24 02:31N 37°58' E 023°37'0 0.0
2017-Aug-24 02:01N 37°58' E 023°37'0 0.0
2017-Aug-24 01:31N 37°58' E 023°37'0 0.0
2017-Aug-24 01:00N 37°58' E 023°37'0 0.0
2017-Aug-24 00:31N 37°58' E 023°37'0 0.0
2017-Aug-24 00:00N 37°58' E 023°37'0 0.0
2017-Aug-23 23:30N 37°58' E 023°37'0 0.0
2017-Aug-23 23:01N 37°58' E 023°37'0 0.0
2017-Aug-23 22:30N 37°58' E 023°37'0 0.0
2017-Aug-23 22:01N 37°58' E 023°37'0 0.0
2017-Aug-23 21:31N 37°58' E 023°37'0 0.0
2017-Aug-23 21:01N 37°58' E 023°37'0 0.0
2017-Aug-23 20:31N 37°58' E 023°37'0 0.0
2017-Aug-23 20:01N 37°58' E 023°37'0 0.0
2017-Aug-23 19:31N 37°58' E 023°37'0 0.0
2017-Aug-23 19:01N 37°58' E 023°37'0 0.0
2017-Aug-23 18:30N 37°58' E 023°37'0 0.0
2017-Aug-23 18:00N 37°58' E 023°37'0 0.0
2017-Aug-23 17:31N 37°58' E 023°37'0 0.0
2017-Aug-23 17:00N 37°58' E 023°37'0 0.0
2017-Aug-23 16:30N 37°58' E 023°37'1 2.5
2017-Aug-23 16:01N 37°57' E 023°35'3 6.4
2017-Aug-23 15:30N 37°60' E 023°33'2 4.7
2017-Aug-23 15:01N 38°02' E 023°33'0 0.0
2017-Aug-23 14:01N 38°02' E 023°33'0 0.0
2017-Aug-23 13:30N 38°02' E 023°33'0 0.0
2017-Aug-23 13:01N 38°02' E 023°33'0 0.0
2017-Aug-23 12:31N 38°02' E 023°33'0 0.2
2017-Aug-23 12:00N 38°02' E 023°33'4 7.6
2017-Aug-23 11:30N 37°58' E 023°33'3 6.1
2017-Aug-23 11:00N 37°58' E 023°37'0 0.1
2017-Aug-23 10:31N 37°58' E 023°37'0 0.0
2017-Aug-23 10:00N 37°58' E 023°37'0 0.0
2017-Aug-23 09:31N 37°58' E 023°37'0 0.0
2017-Aug-23 09:01N 37°58' E 023°37'0 0.0
2017-Aug-23 08:31N 37°58' E 023°37'0 0.0
2017-Aug-23 08:01N 37°58' E 023°37'0 0.0
2017-Aug-23 07:30N 37°58' E 023°37'0 0.0
2017-Aug-23 07:01N 37°58' E 023°37'0 0.0
2017-Aug-23 06:31N 37°58' E 023°37'0 0.0
2017-Aug-23 06:01N 37°58' E 023°37'0 0.0
2017-Aug-23 05:31N 37°58' E 023°37'0 0.0
2017-Aug-23 05:00N 37°58' E 023°37'0 0.0
2017-Aug-23 04:30N 37°58' E 023°37'0 0.0
2017-Aug-23 04:01N 37°58' E 023°37'0 0.0
2017-Aug-23 03:31N 37°58' E 023°37'0 0.0
2017-Aug-23 03:01N 37°58' E 023°37'0 0.0
2017-Aug-22 11:05N 37°58' E 023°37'0 0.0
2017-Aug-22 11:00N 37°58' E 023°37'0 0.0
2017-Aug-22 10:30N 37°58' E 023°37'0 0.0
2017-Aug-22 10:00N 37°58' E 023°37'0 0.0
2017-Aug-22 09:30N 37°58' E 023°37'0 0.0
2017-Aug-22 09:00N 37°58' E 023°37'0 0.0
2017-Aug-22 08:30N 37°58' E 023°37'0 0.0
2017-Aug-22 08:00N 37°58' E 023°37'0 0.0
2017-Aug-22 07:30N 37°58' E 023°37'0 0.0
2017-Aug-22 07:00N 37°58' E 023°37'0 0.0
2017-Aug-22 06:30N 37°58' E 023°37'0 0.0
2017-Aug-22 06:00N 37°58' E 023°37'0 0.0
2017-Aug-22 05:30N 37°58' E 023°37'0 0.0
2017-Aug-22 05:00N 37°58' E 023°37'0 0.0
2017-Aug-22 04:30N 37°58' E 023°37'0 0.0
2017-Aug-22 04:00N 37°58' E 023°37'0 0.0
2017-Aug-22 03:30N 37°58' E 023°37'  

Dump ship's entire track history